TAF KEGE
KEGE 090537Z 0906/1006 24012KT P6SM VCSH OVC030 FM091200 24010KT 6SM -SHSN BR SCT029 BKN040 FM091900 25012G22KT 2SM -SHSNRA BR SCT023 OVC028 FM100000 18012KT 1 1/2SM -SHSN BR OVC015=
METAR KEGE
WC KEGE
WS KEGE
WV KEGE